sensor_id;sensor_type;location;lat;lon;timestamp;pressure;altitude;pressure_sealevel;temperature;humidity
19576;BME280;41589;51.196;7.074;2023-10-13T00:02:03;98726.06;;;19.45;94.32
19576;BME280;41589;51.196;7.074;2023-10-13T00:07:05;98722.34;;;19.56;94.32
19576;BME280;41589;51.196;7.074;2023-10-13T00:12:09;98720.78;;;19.55;93.70
19576;BME280;41589;51.196;7.074;2023-10-13T00:17:13;98713.00;;;19.55;93.46
19576;BME280;41589;51.196;7.074;2023-10-13T00:22:20;98709.38;;;19.55;93.03
19576;BME280;41589;51.196;7.074;2023-10-13T00:27:22;98696.94;;;19.52;93.38
19576;BME280;41589;51.196;7.074;2023-10-13T00:32:36;98688.16;;;19.50;93.16
19576;BME280;41589;51.196;7.074;2023-10-13T00:37:40;98681.13;;;19.51;92.87
19576;BME280;41589;51.196;7.074;2023-10-13T00:42:44;98682.25;;;19.43;92.84
19576;BME280;41589;51.196;7.074;2023-10-13T00:47:51;98675.97;;;19.50;93.15
19576;BME280;41589;51.196;7.074;2023-10-13T00:52:57;98665.31;;;19.50;92.71
19576;BME280;41589;51.196;7.074;2023-10-13T00:57:59;98665.31;;;19.50;92.82
19576;BME280;41589;51.196;7.074;2023-10-13T01:03:03;98664.75;;;19.57;92.83
19576;BME280;41589;51.196;7.074;2023-10-13T01:08:07;98651.75;;;19.56;92.37
19576;BME280;41589;51.196;7.074;2023-10-13T01:13:12;98643.97;;;19.57;92.39
19576;BME280;41589;51.196;7.074;2023-10-13T01:18:13;98647.66;;;19.52;92.41
19576;BME280;41589;51.196;7.074;2023-10-13T01:23:14;98645.28;;;19.56;92.11
19576;BME280;41589;51.196;7.074;2023-10-13T01:28:24;98626.13;;;19.51;92.24
19576;BME280;41589;51.196;7.074;2023-10-13T01:33:24;98631.00;;;19.56;92.43
19576;BME280;41589;51.196;7.074;2023-10-13T01:38:28;98615.13;;;19.60;92.31
19576;BME280;41589;51.196;7.074;2023-10-13T01:43:33;98609.34;;;19.66;92.10
19576;BME280;41589;51.196;7.074;2023-10-13T01:48:35;98613.44;;;19.71;92.00
19576;BME280;41589;51.196;7.074;2023-10-13T01:53:40;98594.22;;;19.71;91.46
19576;BME280;41589;51.196;7.074;2023-10-13T01:58:41;98584.03;;;19.76;91.80
19576;BME280;41589;51.196;7.074;2023-10-13T02:03:42;98582.72;;;19.77;91.23
19576;BME280;41589;51.196;7.074;2023-10-13T02:08:47;98578.88;;;19.74;91.19
19576;BME280;41589;51.196;7.074;2023-10-13T02:13:51;98568.06;;;19.67;91.40
19576;BME280;41589;51.196;7.074;2023-10-13T02:18:54;98574.06;;;19.64;91.10
19576;BME280;41589;51.196;7.074;2023-10-13T02:23:55;98562.44;;;19.61;91.70
19576;BME280;41589;51.196;7.074;2023-10-13T02:29:04;98557.81;;;19.58;91.89
19576;BME280;41589;51.196;7.074;2023-10-13T02:34:08;98547.84;;;19.65;91.68
19576;BME280;41589;51.196;7.074;2023-10-13T02:39:08;98523.00;;;19.60;91.70
19576;BME280;41589;51.196;7.074;2023-10-13T02:44:09;98509.81;;;19.57;91.74
19576;BME280;41589;51.196;7.074;2023-10-13T02:49:11;98516.22;;;19.63;91.96
19576;BME280;41589;51.196;7.074;2023-10-13T02:54:13;98510.66;;;19.52;93.26
19576;BME280;41589;51.196;7.074;2023-10-13T02:59:18;98490.63;;;19.57;93.33
19576;BME280;41589;51.196;7.074;2023-10-13T03:04:34;98514.38;;;19.47;92.97
19576;BME280;41589;51.196;7.074;2023-10-13T03:09:35;98493.31;;;19.50;93.39
19576;BME280;41589;51.196;7.074;2023-10-13T03:14:37;98478.50;;;19.51;93.42
19576;BME280;41589;51.196;7.074;2023-10-13T03:19:38;98473.88;;;19.48;93.50
19576;BME280;41589;51.196;7.074;2023-10-13T03:24:39;98474.09;;;19.50;93.97
19576;BME280;41589;51.196;7.074;2023-10-13T03:29:45;98461.91;;;19.50;94.35
19576;BME280;41589;51.196;7.074;2023-10-13T03:34:54;98462.47;;;19.48;94.38
19576;BME280;41589;51.196;7.074;2023-10-13T03:40:12;98457.53;;;19.49;94.78
19576;BME280;41589;51.196;7.074;2023-10-13T03:45:21;98450.56;;;19.44;95.43
19576;BME280;41589;51.196;7.074;2023-10-13T03:50:21;98437.63;;;19.43;95.65
19576;BME280;41589;51.196;7.074;2023-10-13T03:55:32;98436.06;;;19.42;95.64
19576;BME280;41589;51.196;7.074;2023-10-13T04:00:35;98438.94;;;19.42;95.78
19576;BME280;41589;51.196;7.074;2023-10-13T04:05:36;98410.63;;;19.44;95.77
19576;BME280;41589;51.196;7.074;2023-10-13T04:11:00;98407.84;;;19.39;96.25
19576;BME280;41589;51.196;7.074;2023-10-13T04:16:19;98404.69;;;19.42;96.80
19576;BME280;41589;51.196;7.074;2023-10-13T04:21:22;98404.69;;;19.42;96.48
19576;BME280;41589;51.196;7.074;2023-10-13T04:26:41;98401.06;;;19.42;96.62
19576;BME280;41589;51.196;7.074;2023-10-13T04:32:02;98399.97;;;19.45;96.75
19576;BME280;41589;51.196;7.074;2023-10-13T04:37:13;98380.25;;;19.47;96.59
19576;BME280;41589;51.196;7.074;2023-10-13T04:42:29;98377.63;;;19.49;96.74
19576;BME280;41589;51.196;7.074;2023-10-13T04:47:47;98370.03;;;19.51;96.71
19576;BME280;41589;51.196;7.074;2023-10-13T04:52:57;98362.25;;;19.52;96.82
19576;BME280;41589;51.196;7.074;2023-10-13T04:58:13;98350.63;;;19.50;96.76
19576;BME280;41589;51.196;7.074;2023-10-13T05:03:32;98350.28;;;19.53;97.68
19576;BME280;41589;51.196;7.074;2023-10-13T05:08:53;98335.78;;;19.51;97.34
19576;BME280;41589;51.196;7.074;2023-10-13T05:14:12;98333.50;;;19.50;97.89
19576;BME280;41589;51.196;7.074;2023-10-13T05:19:31;98343.47;;;19.56;97.78
19576;BME280;41589;51.196;7.074;2023-10-13T05:24:52;98336.47;;;19.57;97.90
19576;BME280;41589;51.196;7.074;2023-10-13T05:30:12;98340.78;;;19.64;98.08
19576;BME280;41589;51.196;7.074;2023-10-13T05:35:31;98337.91;;;19.64;98.01
19576;BME280;41589;51.196;7.074;2023-10-13T05:40:58;98347.78;;;19.63;98.44
19576;BME280;41589;51.196;7.074;2023-10-13T05:46:17;98351.63;;;19.66;98.33
19576;BME280;41589;51.196;7.074;2023-10-13T05:51:27;98346.69;;;19.66;98.43
19576;BME280;41589;51.196;7.074;2023-10-13T05:57:01;98374.41;;;19.71;99.09
19576;BME280;41589;51.196;7.074;2023-10-13T06:02:49;98373.94;;;19.67;99.59
19576;BME280;41589;51.196;7.074;2023-10-13T06:08:08;98367.22;;;19.65;100.00
19576;BME280;41589;51.196;7.074;2023-10-13T06:13:28;98374.44;;;18.96;100.00
19576;BME280;41589;51.196;7.074;2023-10-13T06:18:50;98374.41;;;18.34;100.00
19576;BME280;41589;51.196;7.074;2023-10-13T06:24:09;98382.78;;;18.21;100.00
19576;BME280;41589;51.196;7.074;2023-10-13T06:29:28;98369.88;;;18.19;100.00
19576;BME280;41589;51.196;7.074;2023-10-13T06:34:28;98364.16;;;18.19;100.00
19576;BME280;41589;51.196;7.074;2023-10-13T06:39:38;98357.69;;;18.19;100.00
19576;BME280;41589;51.196;7.074;2023-10-13T06:44:38;98315.81;;;18.14;100.00
19576;BME280;41589;51.196;7.074;2023-10-13T06:49:40;98316.59;;;18.14;100.00
19576;BME280;41589;51.196;7.074;2023-10-13T06:54:43;98296.91;;;18.16;100.00
19576;BME280;41589;51.196;7.074;2023-10-13T06:59:44;98291.19;;;18.16;100.00
19576;BME280;41589;51.196;7.074;2023-10-13T07:04:44;98294.91;;;18.30;100.00
19576;BME280;41589;51.196;7.074;2023-10-13T07:09:45;98313.72;;;18.39;100.00
19576;BME280;41589;51.196;7.074;2023-10-13T07:14:58;98307.25;;;18.38;100.00
19576;BME280;41589;51.196;7.074;2023-10-13T07:20:11;98297.59;;;18.47;100.00
19576;BME280;41589;51.196;7.074;2023-10-13T07:25:24;98289.28;;;18.49;100.00
19576;BME280;41589;51.196;7.074;2023-10-13T07:30:26;98291.31;;;18.54;100.00
19576;BME280;41589;51.196;7.074;2023-10-13T07:35:27;98291.81;;;18.53;100.00
19576;BME280;41589;51.196;7.074;2023-10-13T07:40:31;98289.75;;;18.53;100.00
19576;BME280;41589;51.196;7.074;2023-10-13T07:45:31;98276.50;;;18.56;100.00
19576;BME280;41589;51.196;7.074;2023-10-13T07:50:40;98281.56;;;18.63;100.00
19576;BME280;41589;51.196;7.074;2023-10-13T07:55:40;98276.59;;;18.69;100.00
19576;BME280;41589;51.196;7.074;2023-10-13T08:00:41;98280.97;;;18.70;100.00
19576;BME280;41589;51.196;7.074;2023-10-13T08:05:45;98265.34;;;18.77;100.00
19576;BME280;41589;51.196;7.074;2023-10-13T08:11:26;98266.34;;;18.79;100.00
19576;BME280;41589;51.196;7.074;2023-10-13T08:16:31;98262.72;;;18.79;100.00
19576;BME280;41589;51.196;7.074;2023-10-13T08:21:50;98259.41;;;18.74;100.00
19576;BME280;41589;51.196;7.074;2023-10-13T08:26:54;98249.22;;;18.79;100.00
19576;BME280;41589;51.196;7.074;2023-10-13T08:32:15;98248.75;;;18.94;100.00
19576;BME280;41589;51.196;7.074;2023-10-13T08:37:27;98255.34;;;19.02;100.00
19576;BME280;41589;51.196;7.074;2023-10-13T08:42:36;98259.66;;;19.27;100.00
19576;BME280;41589;51.196;7.074;2023-10-13T08:47:45;98251.06;;;19.59;100.00
19576;BME280;41589;51.196;7.074;2023-10-13T08:52:55;98257.00;;;19.61;100.00
19576;BME280;41589;51.196;7.074;2023-10-13T08:57:56;98230.56;;;20.01;100.00
19576;BME280;41589;51.196;7.074;2023-10-13T09:03:06;98229.94;;;20.21;100.00
19576;BME280;41589;51.196;7.074;2023-10-13T09:08:25;98230.97;;;20.58;100.00
19576;BME280;41589;51.196;7.074;2023-10-13T09:13:35;98221.69;;;20.31;100.00
19576;BME280;41589;51.196;7.074;2023-10-13T09:18:43;98210.94;;;20.10;100.00
19576;BME280;41589;51.196;7.074;2023-10-13T09:23:47;98204.44;;;20.23;100.00
19576;BME280;41589;51.196;7.074;2023-10-13T09:28:49;98198.56;;;20.42;100.00
19576;BME280;41589;51.196;7.074;2023-10-13T09:33:53;98190.81;;;20.63;100.00
19576;BME280;41589;51.196;7.074;2023-10-13T09:38:58;98181.47;;;20.63;100.00
19576;BME280;41589;51.196;7.074;2023-10-13T09:44:29;98188.34;;;20.46;100.00
19576;BME280;41589;51.196;7.074;2023-10-13T09:49:35;98181.34;;;20.34;100.00
19576;BME280;41589;51.196;7.074;2023-10-13T10:00:06;98177.09;;;20.62;100.00
19576;BME280;41589;51.196;7.074;2023-10-13T10:05:27;98162.09;;;20.69;100.00
19576;BME280;41589;51.196;7.074;2023-10-13T10:10:56;98161.69;;;20.65;100.00
19576;BME280;41589;51.196;7.074;2023-10-13T10:16:10;98160.25;;;20.58;100.00
19576;BME280;41589;51.196;7.074;2023-10-13T10:21:14;98161.41;;;20.76;100.00
19576;BME280;41589;51.196;7.074;2023-10-13T10:26:16;98164.63;;;20.72;100.00
19576;BME280;41589;51.196;7.074;2023-10-13T10:31:31;98171.69;;;20.92;100.00
19576;BME280;41589;51.196;7.074;2023-10-13T10:36:35;98167.78;;;21.03;100.00
19576;BME280;41589;51.196;7.074;2023-10-13T10:41:36;98158.19;;;21.14;100.00
19576;BME280;41589;51.196;7.074;2023-10-13T10:46:43;98143.50;;;21.17;100.00
19576;BME280;41589;51.196;7.074;2023-10-13T10:52:00;98139.16;;;21.24;100.00
19576;BME280;41589;51.196;7.074;2023-10-13T10:57:01;98128.22;;;21.43;100.00
19576;BME280;41589;51.196;7.074;2023-10-13T11:02:30;98121.28;;;21.31;100.00
19576;BME280;41589;51.196;7.074;2023-10-13T11:07:31;98118.97;;;21.79;100.00
19576;BME280;41589;51.196;7.074;2023-10-13T11:12:31;98096.44;;;21.83;100.00
19576;BME280;41589;51.196;7.074;2023-10-13T11:17:34;98090.63;;;22.11;100.00
19576;BME280;41589;51.196;7.074;2023-10-13T11:22:49;98090.97;;;22.00;100.00
19576;BME280;41589;51.196;7.074;2023-10-13T11:27:50;98087.69;;;21.88;100.00
19576;BME280;41589;51.196;7.074;2023-10-13T11:37:57;98079.91;;;22.04;100.00
19576;BME280;41589;51.196;7.074;2023-10-13T11:43:13;98073.06;;;22.15;100.00
19576;BME280;41589;51.196;7.074;2023-10-13T11:48:17;98058.63;;;21.84;100.00
19576;BME280;41589;51.196;7.074;2023-10-13T11:53:27;98046.41;;;21.84;100.00
19576;BME280;41589;51.196;7.074;2023-10-13T11:58:29;98046.03;;;21.80;100.00
19576;BME280;41589;51.196;7.074;2023-10-13T12:03:30;98038.22;;;21.88;100.00
19576;BME280;41589;51.196;7.074;2023-10-13T12:08:49;98029.56;;;21.73;100.00
19576;BME280;41589;51.196;7.074;2023-10-13T12:13:50;98039.88;;;21.76;100.00
19576;BME280;41589;51.196;7.074;2023-10-13T12:18:50;98046.41;;;21.84;100.00
19576;BME280;41589;51.196;7.074;2023-10-13T12:23:53;98037.75;;;21.69;100.00
19576;BME280;41589;51.196;7.074;2023-10-13T12:28:54;98033.38;;;21.68;100.00
19576;BME280;41589;51.196;7.074;2023-10-13T12:34:05;98032.81;;;21.69;100.00
19576;BME280;41589;51.196;7.074;2023-10-13T12:39:19;98033.38;;;21.68;100.00
19576;BME280;41589;51.196;7.074;2023-10-13T12:44:38;98026.69;;;21.73;100.00
19576;BME280;41589;51.196;7.074;2023-10-13T12:49:57;98017.94;;;21.42;100.00
19576;BME280;41589;51.196;7.074;2023-10-13T12:55:08;98017.69;;;21.32;100.00
19576;BME280;41589;51.196;7.074;2023-10-13T13:00:11;98008.16;;;21.30;100.00
19576;BME280;41589;51.196;7.074;2023-10-13T13:05:23;98002.63;;;21.32;100.00
19576;BME280;41589;51.196;7.074;2023-10-13T13:10:28;98004.88;;;21.26;100.00
19576;BME280;41589;51.196;7.074;2023-10-13T13:15:37;98006.63;;;21.29;100.00
19576;BME280;41589;51.196;7.074;2023-10-13T13:20:38;97997.84;;;21.27;100.00
19576;BME280;41589;51.196;7.074;2023-10-13T13:25:53;98011.78;;;21.30;100.00
19576;BME280;41589;51.196;7.074;2023-10-13T13:30:54;97997.38;;;21.15;100.00
19576;BME280;41589;51.196;7.074;2023-10-13T13:35:55;97996.63;;;21.15;100.00
19576;BME280;41589;51.196;7.074;2023-10-13T13:41:00;98002.66;;;21.03;100.00
19576;BME280;41589;51.196;7.074;2023-10-13T13:46:06;98002.03;;;20.97;100.00
19576;BME280;41589;51.196;7.074;2023-10-13T13:51:09;97992.19;;;21.06;100.00
19576;BME280;41589;51.196;7.074;2023-10-13T13:56:16;97995.91;;;20.93;100.00
19576;BME280;41589;51.196;7.074;2023-10-13T14:01:18;97993.56;;;20.84;100.00
19576;BME280;41589;51.196;7.074;2023-10-13T14:06:21;97986.41;;;20.77;100.00
19576;BME280;41589;51.196;7.074;2023-10-13T14:11:24;97992.00;;;20.83;100.00
19576;BME280;41589;51.196;7.074;2023-10-13T14:16:43;97974.41;;;20.79;100.00
19576;BME280;41589;51.196;7.074;2023-10-13T14:21:47;97970.13;;;20.65;100.00
19576;BME280;41589;51.196;7.074;2023-10-13T14:27:03;97976.97;;;20.62;100.00
19576;BME280;41589;51.196;7.074;2023-10-13T14:32:13;97978.34;;;20.68;100.00
19576;BME280;41589;51.196;7.074;2023-10-13T14:37:15;97983.28;;;20.68;100.00
19576;BME280;41589;51.196;7.074;2023-10-13T14:42:27;97988.94;;;20.60;100.00
19576;BME280;41589;51.196;7.074;2023-10-13T14:47:27;97961.06;;;20.74;100.00
19576;BME280;41589;51.196;7.074;2023-10-13T14:52:28;97970.19;;;20.72;100.00
19576;BME280;41589;51.196;7.074;2023-10-13T14:57:32;97948.03;;;20.65;100.00
19576;BME280;41589;51.196;7.074;2023-10-13T15:02:32;97961.88;;;20.61;100.00
19576;BME280;41589;51.196;7.074;2023-10-13T15:07:36;97944.78;;;20.69;100.00
19576;BME280;41589;51.196;7.074;2023-10-13T15:12:36;97954.91;;;20.70;100.00
19576;BME280;41589;51.196;7.074;2023-10-13T15:17:41;97952.00;;;20.62;100.00
19576;BME280;41589;51.196;7.074;2023-10-13T15:22:45;97945.75;;;20.71;100.00
19576;BME280;41589;51.196;7.074;2023-10-13T15:27:49;97945.72;;;20.64;100.00
19576;BME280;41589;51.196;7.074;2023-10-13T15:33:02;97952.78;;;20.63;100.00
19576;BME280;41589;51.196;7.074;2023-10-13T15:38:05;97943.91;;;20.74;100.00
19576;BME280;41589;51.196;7.074;2023-10-13T15:43:06;97930.03;;;20.57;100.00
19576;BME280;41589;51.196;7.074;2023-10-13T15:48:07;97937.59;;;20.47;100.00
19576;BME280;41589;51.196;7.074;2023-10-13T15:53:08;97944.00;;;20.40;100.00
19576;BME280;41589;51.196;7.074;2023-10-13T15:58:12;97952.38;;;20.38;100.00
19576;BME280;41589;51.196;7.074;2023-10-13T16:03:13;97941.91;;;20.40;100.00
19576;BME280;41589;51.196;7.074;2023-10-13T16:08:14;97927.97;;;20.37;100.00
19576;BME280;41589;51.196;7.074;2023-10-13T16:13:14;97903.22;;;20.39;100.00
19576;BME280;41589;51.196;7.074;2023-10-13T16:18:20;97921.38;;;20.21;100.00
19576;BME280;41589;51.196;7.074;2023-10-13T16:23:22;97920.09;;;20.30;100.00
19576;BME280;41589;51.196;7.074;2023-10-13T16:28:24;97917.25;;;20.30;100.00
19576;BME280;41589;51.196;7.074;2023-10-13T16:33:24;97917.22;;;20.22;100.00
19576;BME280;41589;51.196;7.074;2023-10-13T16:38:24;97915.19;;;20.09;100.00
19576;BME280;41589;51.196;7.074;2023-10-13T16:43:25;97900.56;;;20.13;100.00
19576;BME280;41589;51.196;7.074;2023-10-13T16:48:25;97892.38;;;20.17;100.00
19576;BME280;41589;51.196;7.074;2023-10-13T16:53:27;97896.56;;;20.16;100.00
19576;BME280;41589;51.196;7.074;2023-10-13T16:58:28;97888.44;;;20.20;100.00
19576;BME280;41589;51.196;7.074;2023-10-13T17:03:30;97899.03;;;20.12;100.00
19576;BME280;41589;51.196;7.074;2023-10-13T17:08:31;97890.25;;;20.10;100.00
19576;BME280;41589;51.196;7.074;2023-10-13T17:13:31;97876.78;;;20.18;100.00
19576;BME280;41589;51.196;7.074;2023-10-13T17:18:33;97872.25;;;20.23;100.00
19576;BME280;41589;51.196;7.074;2023-10-13T17:23:33;97867.13;;;20.21;100.00
19576;BME280;41589;51.196;7.074;2023-10-13T17:28:34;97852.66;;;20.27;100.00
19576;BME280;41589;51.196;7.074;2023-10-13T17:33:36;97847.91;;;20.29;100.00
19576;BME280;41589;51.196;7.074;2023-10-13T17:38:39;97851.31;;;20.20;100.00
19576;BME280;41589;51.196;7.074;2023-10-13T17:43:40;97851.84;;;20.18;100.00
19576;BME280;41589;51.196;7.074;2023-10-13T17:48:41;97854.75;;;20.05;100.00
19576;BME280;41589;51.196;7.074;2023-10-13T17:53:44;97837.09;;;20.07;100.00
19576;BME280;41589;51.196;7.074;2023-10-13T17:58:46;97837.78;;;20.00;100.00
19576;BME280;41589;51.196;7.074;2023-10-13T18:03:48;97827.44;;;19.97;100.00
19576;BME280;41589;51.196;7.074;2023-10-13T18:08:51;97822.88;;;19.94;100.00
19576;BME280;41589;51.196;7.074;2023-10-13T18:13:51;97810.38;;;20.04;100.00
19576;BME280;41589;51.196;7.074;2023-10-13T18:18:52;97816.47;;;20.01;100.00
19576;BME280;41589;51.196;7.074;2023-10-13T18:23:55;97816.88;;;20.05;100.00
19576;BME280;41589;51.196;7.074;2023-10-13T18:28:56;97814.44;;;20.09;100.00
19576;BME280;41589;51.196;7.074;2023-10-13T18:33:58;97803.28;;;20.18;100.00
19576;BME280;41589;51.196;7.074;2023-10-13T18:38:58;97799.72;;;20.26;100.00
19576;BME280;41589;51.196;7.074;2023-10-13T18:44:07;97798.28;;;20.11;100.00
19576;BME280;41589;51.196;7.074;2023-10-13T18:49:09;97797.56;;;20.18;100.00
19576;BME280;41589;51.196;7.074;2023-10-13T18:54:10;97804.00;;;20.11;100.00
19576;BME280;41589;51.196;7.074;2023-10-13T18:59:11;97792.00;;;20.13;100.00
19576;BME280;41589;51.196;7.074;2023-10-13T19:04:16;97786.88;;;20.11;100.00
19576;BME280;41589;51.196;7.074;2023-10-13T19:09:16;97769.16;;;20.13;100.00
19576;BME280;41589;51.196;7.074;2023-10-13T19:14:24;97749.84;;;20.06;100.00
19576;BME280;41589;51.196;7.074;2023-10-13T19:19:26;97732.00;;;19.84;100.00
19576;BME280;41589;51.196;7.074;2023-10-13T19:24:27;97725.25;;;19.74;100.00
19576;BME280;41589;51.196;7.074;2023-10-13T19:29:28;97714.28;;;19.78;100.00
19576;BME280;41589;51.196;7.074;2023-10-13T19:34:28;97723.22;;;19.82;100.00
19576;BME280;41589;51.196;7.074;2023-10-13T19:39:29;97698.75;;;19.95;100.00
19576;BME280;41589;51.196;7.074;2023-10-13T19:44:29;97688.53;;;19.99;100.00
19576;BME280;41589;51.196;7.074;2023-10-13T19:49:29;97702.00;;;19.99;100.00
19576;BME280;41589;51.196;7.074;2023-10-13T19:54:30;97709.28;;;20.00;100.00
19576;BME280;41589;51.196;7.074;2023-10-13T19:59:30;97704.66;;;19.97;100.00
19576;BME280;41589;51.196;7.074;2023-10-13T20:04:31;97711.31;;;19.92;100.00
19576;BME280;41589;51.196;7.074;2023-10-13T20:09:32;97695.94;;;19.74;100.00
19576;BME280;41589;51.196;7.074;2023-10-13T20:14:33;97679.75;;;19.69;100.00
19576;BME280;41589;51.196;7.074;2023-10-13T20:19:33;97685.34;;;19.53;100.00
19576;BME280;41589;51.196;7.074;2023-10-13T20:24:33;97684.59;;;19.32;100.00
19576;BME280;41589;51.196;7.074;2023-10-13T20:29:35;97685.22;;;19.17;100.00
19576;BME280;41589;51.196;7.074;2023-10-13T20:34:40;97689.78;;;19.20;100.00
19576;BME280;41589;51.196;7.074;2023-10-13T20:39:40;97684.16;;;19.07;100.00
19576;BME280;41589;51.196;7.074;2023-10-13T20:44:41;97676.03;;;19.11;100.00
19576;BME280;41589;51.196;7.074;2023-10-13T20:49:41;97693.53;;;19.15;100.00
19576;BME280;41589;51.196;7.074;2023-10-13T20:54:43;97668.16;;;19.25;100.00
19576;BME280;41589;51.196;7.074;2023-10-13T20:59:45;97668.88;;;19.18;100.00
19576;BME280;41589;51.196;7.074;2023-10-13T21:04:46;97662.41;;;19.17;100.00
19576;BME280;41589;51.196;7.074;2023-10-13T21:09:46;97667.38;;;19.03;100.00
19576;BME280;41589;51.196;7.074;2023-10-13T21:14:46;97663.28;;;19.12;100.00
19576;BME280;41589;51.196;7.074;2023-10-13T21:19:48;97660.50;;;19.20;100.00
19576;BME280;41589;51.196;7.074;2023-10-13T21:24:49;97655.38;;;19.18;100.00
19576;BME280;41589;51.196;7.074;2023-10-13T21:29:50;97662.59;;;19.19;100.00
19576;BME280;41589;51.196;7.074;2023-10-13T21:34:50;97653.09;;;19.38;100.00
19576;BME280;41589;51.196;7.074;2023-10-13T21:39:51;97633.25;;;19.32;100.00
19576;BME280;41589;51.196;7.074;2023-10-13T21:44:52;97624.97;;;19.42;100.00
19576;BME280;41589;51.196;7.074;2023-10-13T21:49:55;97628.78;;;19.44;100.00
19576;BME280;41589;51.196;7.074;2023-10-13T21:54:58;97620.41;;;19.46;100.00
19576;BME280;41589;51.196;7.074;2023-10-13T21:59:58;97612.66;;;19.47;100.00
19576;BME280;41589;51.196;7.074;2023-10-13T22:04:58;97619.66;;;19.46;100.00
19576;BME280;41589;51.196;7.074;2023-10-13T22:09:59;97624.91;;;19.34;100.00
19576;BME280;41589;51.196;7.074;2023-10-13T22:14:59;97614.63;;;19.31;100.00
19576;BME280;41589;51.196;7.074;2023-10-13T22:20:04;97620.72;;;19.35;100.00
19576;BME280;41589;51.196;7.074;2023-10-13T22:25:05;97604.38;;;19.36;100.00
19576;BME280;41589;51.196;7.074;2023-10-13T22:30:14;97598.66;;;19.36;100.00
19576;BME280;41589;51.196;7.074;2023-10-13T22:35:18;97599.84;;;19.40;100.00
19576;BME280;41589;51.196;7.074;2023-10-13T22:40:20;97596.03;;;19.38;100.00
19576;BME280;41589;51.196;7.074;2023-10-13T22:45:20;97573.22;;;19.38;100.00
19576;BME280;41589;51.196;7.074;2023-10-13T22:50:24;97574.72;;;19.39;100.00
19576;BME280;41589;51.196;7.074;2023-10-13T22:55:27;97578.75;;;19.43;100.00
19576;BME280;41589;51.196;7.074;2023-10-13T23:00:28;97589.19;;;19.41;100.00
19576;BME280;41589;51.196;7.074;2023-10-13T23:05:47;97581.53;;;19.36;100.00
19576;BME280;41589;51.196;7.074;2023-10-13T23:10:51;97568.84;;;19.37;100.00
19576;BME280;41589;51.196;7.074;2023-10-13T23:15:52;97573.97;;;19.38;100.00
19576;BME280;41589;51.196;7.074;2023-10-13T23:20:54;97568.88;;;19.23;100.00
19576;BME280;41589;51.196;7.074;2023-10-13T23:25:54;97570.31;;;19.30;100.00
19576;BME280;41589;51.196;7.074;2023-10-13T23:30:55;97560.47;;;19.39;100.00
19576;BME280;41589;51.196;7.074;2023-10-13T23:35:56;97556.84;;;19.38;100.00
19576;BME280;41589;51.196;7.074;2023-10-13T23:40:57;97553.25;;;19.38;100.00
19576;BME280;41589;51.196;7.074;2023-10-13T23:45:58;97568.25;;;19.38;100.00
19576;BME280;41589;51.196;7.074;2023-10-13T23:51:00;97544.00;;;19.52;100.00
19576;BME280;41589;51.196;7.074;2023-10-13T23:56:05;97541.69;;;19.51;100.00
